createdAt,value
2017-04-16T00:00:43.109Z,56.20
2017-04-16T00:01:41.480Z,56.20
2017-04-16T00:02:39.744Z,56.20
2017-04-16T00:03:37.967Z,56.30
2017-04-16T00:04:36.258Z,56.30
2017-04-16T00:05:35.474Z,57.20
2017-04-16T00:06:33.847Z,56.80
2017-04-16T00:07:32.219Z,56.50
2017-04-16T00:08:30.487Z,56.60
2017-04-16T00:09:28.870Z,56.70
2017-04-16T00:10:27.213Z,56.80
2017-04-16T00:11:25.622Z,56.80
2017-04-16T00:12:23.917Z,56.70
2017-04-16T00:13:23.021Z,56.90
2017-04-16T00:14:21.367Z,57.10
2017-04-16T00:15:20.378Z,57.10
2017-04-16T00:16:18.724Z,57.10
2017-04-16T00:17:17.136Z,57.00
2017-04-16T00:18:15.431Z,57.00
2017-04-16T00:19:13.790Z,57.00
2017-04-16T00:20:12.162Z,57.00
2017-04-16T00:21:15.467Z,57.00
2017-04-16T00:22:13.751Z,57.10
2017-04-16T00:23:12.785Z,57.00
2017-04-16T00:24:11.140Z,57.70
2017-04-16T00:25:09.395Z,57.10
2017-04-16T00:26:07.715Z,57.10
2017-04-16T00:27:06.221Z,57.10
2017-04-16T00:28:04.519Z,56.80
2017-04-16T00:29:03.052Z,56.90
2017-04-16T00:30:01.348Z,57.00
2017-04-16T00:30:59.665Z,56.80
2017-04-16T00:31:58.131Z,56.80
2017-04-16T00:32:56.430Z,56.70
2017-04-16T00:33:54.705Z,56.90
2017-04-16T00:34:52.990Z,57.00
2017-04-16T00:35:51.452Z,57.30
2017-04-16T00:36:49.907Z,57.30
2017-04-16T00:37:48.491Z,57.10
2017-04-16T00:38:47.371Z,57.10
2017-04-16T00:39:45.654Z,57.00
2017-04-16T00:40:43.999Z,57.00
2017-04-16T00:41:42.291Z,57.50
2017-04-16T00:42:40.577Z,57.10
2017-04-16T00:43:38.842Z,57.30
2017-04-16T00:44:37.192Z,57.30
2017-04-16T00:45:35.537Z,58.00
2017-04-16T00:46:33.786Z,57.20
2017-04-16T00:47:32.936Z,57.40
2017-04-16T00:48:31.308Z,57.30
2017-04-16T00:49:29.569Z,57.30
2017-04-16T00:50:27.921Z,57.30
2017-04-16T00:51:26.170Z,57.30
2017-04-16T00:52:24.495Z,57.30
2017-04-16T00:53:22.785Z,57.30
2017-04-16T00:54:21.759Z,57.30
2017-04-16T00:55:20.964Z,57.30
2017-04-16T00:56:19.276Z,58.00
2017-04-16T00:57:17.562Z,57.20
2017-04-16T00:58:15.788Z,57.20
2017-04-16T00:59:14.116Z,57.20
2017-04-16T01:00:13.272Z,57.20
2017-04-16T01:01:17.264Z,57.10
2017-04-16T01:02:21.220Z,57.30
2017-04-16T01:03:19.506Z,57.20
2017-04-16T01:04:18.404Z,57.10
2017-04-16T01:05:16.732Z,57.20
2017-04-16T01:06:15.044Z,57.70
2017-04-16T01:07:13.406Z,57.70
2017-04-16T01:08:11.650Z,57.60
2017-04-16T01:09:09.952Z,57.70
2017-04-16T01:10:08.259Z,57.60
2017-04-16T01:11:06.616Z,57.90
2017-04-16T01:12:04.970Z,58.00
2017-04-16T01:13:03.241Z,58.30
2017-04-16T01:14:01.521Z,58.40
2017-04-16T01:14:59.929Z,58.30
2017-04-16T01:15:58.264Z,58.50
2017-04-16T01:16:57.317Z,58.30
2017-04-16T01:17:56.432Z,58.30
2017-04-16T01:18:54.718Z,58.20
2017-04-16T01:19:53.051Z,58.20
2017-04-16T01:20:52.104Z,58.60
2017-04-16T01:21:50.576Z,58.40
2017-04-16T01:22:49.073Z,58.40
2017-04-16T01:23:47.493Z,58.60
2017-04-16T01:37:45.358Z,58.50
2017-04-16T01:38:43.716Z,58.20
2017-04-16T01:39:42.021Z,58.10
2017-04-16T01:40:40.293Z,58.20
2017-04-16T01:41:38.592Z,58.10
2017-04-16T01:42:36.934Z,58.10
2017-04-16T01:43:35.345Z,58.20
2017-04-16T01:44:33.580Z,58.20
2017-04-16T01:45:31.945Z,58.10
2017-04-16T01:46:30.404Z,58.20
2017-04-16T01:47:28.724Z,58.20
2017-04-16T01:48:26.966Z,58.10
2017-04-16T01:49:26.064Z,58.00
2017-04-16T01:50:24.494Z,58.30
2017-04-16T01:51:22.757Z,58.20
2017-04-16T01:52:21.093Z,58.20
2017-04-16T01:53:19.404Z,58.20
2017-04-16T01:54:17.645Z,58.10
2017-04-16T01:55:15.959Z,58.30
2017-04-16T01:56:14.350Z,58.20
2017-04-16T01:57:12.720Z,58.10
2017-04-16T01:58:11.030Z,58.10
2017-04-16T01:59:09.410Z,58.10
2017-04-16T02:00:07.751Z,58.10
2017-04-16T02:01:06.129Z,58.40
2017-04-16T02:02:04.536Z,58.40
2017-04-16T02:03:03.583Z,58.30
2017-04-16T02:04:01.848Z,58.30
2017-04-16T02:05:00.887Z,58.60
2017-04-16T02:05:59.302Z,58.70
2017-04-16T02:06:57.700Z,58.80
2017-04-16T02:07:56.153Z,58.80
2017-04-16T02:08:54.508Z,58.70
2017-04-16T02:09:52.979Z,58.70
2017-04-16T02:10:51.321Z,58.80
2017-04-16T02:11:49.682Z,58.80
2017-04-16T02:12:48.000Z,58.70
2017-04-16T02:13:46.340Z,58.70
2017-04-16T02:14:45.042Z,58.60
2017-04-16T02:15:43.315Z,58.90
2017-04-16T02:16:41.647Z,58.70
2017-04-16T02:17:39.931Z,59.00
2017-04-16T02:18:38.271Z,59.20
2017-04-16T02:19:36.616Z,59.30
2017-04-16T02:20:34.942Z,59.70
2017-04-16T02:21:33.311Z,60.10
2017-04-16T02:22:31.677Z,60.30
2017-04-16T02:23:30.002Z,60.30
2017-04-16T02:24:28.339Z,60.30
2017-04-16T02:25:27.391Z,60.20
2017-04-16T02:26:25.708Z,60.50
2017-04-16T02:27:24.794Z,60.60
2017-04-16T02:28:23.129Z,60.60
2017-04-16T02:29:21.524Z,60.60
2017-04-16T02:30:19.844Z,60.20
2017-04-16T02:31:18.149Z,60.30
2017-04-16T02:32:17.322Z,60.20
2017-04-16T02:33:15.675Z,60.20
2017-04-16T02:34:13.999Z,60.20
2017-04-16T02:35:12.328Z,60.10
2017-04-16T02:36:10.671Z,60.40
2017-04-16T02:37:08.969Z,60.20
2017-04-16T02:38:07.271Z,60.20
2017-04-16T02:39:05.639Z,60.30
2017-04-16T02:40:03.973Z,60.30
2017-04-16T02:41:03.006Z,60.30
2017-04-16T02:42:01.458Z,60.10
2017-04-16T02:42:59.799Z,60.30
2017-04-16T02:43:58.192Z,60.20
2017-04-16T02:44:56.461Z,60.50
2017-04-16T02:45:54.766Z,61.00
2017-04-16T02:46:53.054Z,61.20
2017-04-16T02:47:51.442Z,61.40
2017-04-16T02:48:50.371Z,61.50
2017-04-16T02:49:48.615Z,61.50
2017-04-16T02:50:46.983Z,61.60
2017-04-16T02:51:45.271Z,61.60
2017-04-16T02:52:43.614Z,61.40
2017-04-16T02:53:41.870Z,61.10
2017-04-16T02:54:40.224Z,61.10
2017-04-16T02:55:38.536Z,60.80
2017-04-16T02:56:36.880Z,60.60
2017-04-16T02:57:35.235Z,60.50
2017-04-16T02:58:33.504Z,60.70
2017-04-16T02:59:31.972Z,60.70
2017-04-16T03:00:30.999Z,60.40
2017-04-16T03:01:29.295Z,60.20
2017-04-16T03:02:27.608Z,60.40
2017-04-16T03:03:25.967Z,60.20
2017-04-16T03:04:24.219Z,60.30
2017-04-16T03:05:22.611Z,60.30
2017-04-16T03:06:20.899Z,60.30
2017-04-16T03:07:19.191Z,60.30
2017-04-16T03:08:17.534Z,60.30
2017-04-16T03:09:15.799Z,60.20
2017-04-16T03:10:14.060Z,60.20
2017-04-16T03:11:12.347Z,60.30
2017-04-16T03:12:10.621Z,60.30
2017-04-16T03:13:08.917Z,60.30
2017-04-16T03:14:07.231Z,60.10
2017-04-16T03:15:05.599Z,60.00
2017-04-16T03:16:03.923Z,60.10
2017-04-16T03:17:02.164Z,59.80
2017-04-16T03:18:00.479Z,59.80
2017-04-16T03:18:58.857Z,59.90
2017-04-16T03:19:58.513Z,59.90
2017-04-16T03:20:56.871Z,59.80
2017-04-16T03:21:55.250Z,60.00
2017-04-16T03:23:52.404Z,60.00
2017-04-16T03:24:50.712Z,60.10
2017-04-16T03:25:50.529Z,60.00
2017-04-16T03:26:48.860Z,60.00
2017-04-16T03:27:47.212Z,59.90
2017-04-16T03:28:46.481Z,59.70
2017-04-16T03:29:44.782Z,59.50
2017-04-16T03:30:43.873Z,59.50
2017-04-16T03:31:42.186Z,59.40
2017-04-16T03:32:40.463Z,59.20
2017-04-16T03:33:38.716Z,59.20
2017-04-16T03:34:36.951Z,59.20
2017-04-16T03:35:35.202Z,59.20
2017-04-16T03:36:34.204Z,59.60
2017-04-16T03:37:32.669Z,60.40
2017-04-16T03:38:30.978Z,60.30
2017-04-16T03:39:29.318Z,60.60
2017-04-16T03:40:27.577Z,60.70
2017-04-16T03:41:25.837Z,60.90
2017-04-16T03:42:24.268Z,61.20
2017-04-16T03:43:22.664Z,61.40
2017-04-16T03:44:20.958Z,61.50
2017-04-16T03:45:19.311Z,62.00
2017-04-16T03:46:17.656Z,62.30
2017-04-16T03:47:16.736Z,62.50
2017-04-16T03:48:15.034Z,62.80
2017-04-16T03:49:13.424Z,63.60
2017-04-16T03:50:12.758Z,63.40
2017-04-16T03:51:11.144Z,63.70
2017-04-16T03:52:09.476Z,63.90
2017-04-16T03:53:07.838Z,64.30
2017-04-16T03:54:06.148Z,65.10
2017-04-16T03:55:05.205Z,64.60
2017-04-16T03:56:04.169Z,64.60
2017-04-16T03:57:02.729Z,64.80
2017-04-16T03:58:02.326Z,64.70
2017-04-16T03:59:00.834Z,65.10
2017-04-16T03:59:59.233Z,65.20
2017-04-16T04:00:57.477Z,65.10
2017-04-16T04:01:55.810Z,65.00
2017-04-16T04:02:54.142Z,65.30
2017-04-16T04:03:52.572Z,65.40
2017-04-16T04:04:51.139Z,65.60
2017-04-16T04:05:49.535Z,65.60
2017-04-16T04:06:47.893Z,70.00
2017-04-16T04:07:46.184Z,74.80
2017-04-16T04:08:45.919Z,66.30
2017-04-16T04:09:45.031Z,71.60
2017-04-16T04:10:43.500Z,64.80
2017-04-16T04:11:42.082Z,65.40
2017-04-16T04:12:42.315Z,64.50
2017-04-16T04:13:42.362Z,63.20
2017-04-16T04:14:40.819Z,63.50
2017-04-16T04:15:39.864Z,64.00
2017-04-16T04:16:38.969Z,63.80
2017-04-16T04:17:37.366Z,64.10
2017-04-16T04:18:35.713Z,63.90
2017-04-16T04:19:34.694Z,64.10
2017-04-16T04:20:34.005Z,64.10
2017-04-16T04:21:32.271Z,63.60
2017-04-16T04:22:32.470Z,64.00
2017-04-16T04:23:31.752Z,64.00
2017-04-16T04:24:30.857Z,64.40
2017-04-16T04:25:29.148Z,64.40
2017-04-16T04:26:27.488Z,64.40
2017-04-16T04:27:25.813Z,64.40
2017-04-16T04:28:24.079Z,64.40
2017-04-16T04:29:22.751Z,64.30
2017-04-16T04:30:21.093Z,64.40
2017-04-16T04:31:19.373Z,64.40
2017-04-16T04:32:17.610Z,64.30
2017-04-16T04:33:15.873Z,64.40
2017-04-16T04:34:14.115Z,64.40
2017-04-16T04:35:13.162Z,64.30
2017-04-16T04:36:12.217Z,64.30
2017-04-16T04:37:10.485Z,64.20
2017-04-16T04:38:08.753Z,64.20
2017-04-16T04:39:07.053Z,64.20
2017-04-16T04:40:05.445Z,66.10
2017-04-16T04:41:04.576Z,66.40
2017-04-16T04:42:02.841Z,64.80
2017-04-16T04:43:01.633Z,64.70
2017-04-16T04:43:59.911Z,64.80
2017-04-16T04:44:58.192Z,65.20
2017-04-16T04:45:56.744Z,64.90
2017-04-16T04:46:55.016Z,64.40
2017-04-16T04:47:53.419Z,64.30
2017-04-16T04:48:52.419Z,64.60
2017-04-16T04:49:51.451Z,64.60
2017-04-16T04:50:49.739Z,64.30
2017-04-16T04:51:48.894Z,64.40
2017-04-16T04:52:47.228Z,64.00
2017-04-16T04:53:45.475Z,63.80
2017-04-16T04:54:43.766Z,63.50
2017-04-16T04:55:42.076Z,64.50
2017-04-16T04:56:40.330Z,63.00
2017-04-16T04:57:38.673Z,63.30
2017-04-16T04:58:37.627Z,63.00
2017-04-16T04:59:35.919Z,63.00
2017-04-16T05:00:34.219Z,63.20
2017-04-16T05:01:32.651Z,63.30
2017-04-16T05:02:31.002Z,63.20
2017-04-16T05:03:29.447Z,62.60
2017-04-16T05:04:27.833Z,62.70
2017-04-16T05:05:26.190Z,63.00
2017-04-16T05:06:25.263Z,62.80
2017-04-16T05:07:23.766Z,62.30
2017-04-16T05:08:22.155Z,62.40
2017-04-16T05:09:20.448Z,62.60
2017-04-16T05:10:18.739Z,62.60
2017-04-16T05:11:17.024Z,62.50
2017-04-16T05:12:15.279Z,62.50
2017-04-16T05:13:13.612Z,62.00
2017-04-16T05:14:12.090Z,61.60
2017-04-16T05:15:10.528Z,61.40
2017-04-16T05:16:09.344Z,61.30
2017-04-16T05:17:07.696Z,61.00
2017-04-16T05:18:05.994Z,61.10
2017-04-16T05:19:04.343Z,60.70
2017-04-16T05:20:02.725Z,60.70
2017-04-16T05:21:01.121Z,60.70
2017-04-16T05:22:00.028Z,60.70
2017-04-16T05:22:59.621Z,60.80
2017-04-16T05:23:58.683Z,60.50
2017-04-16T05:24:57.051Z,60.50
2017-04-16T05:25:56.133Z,60.50
2017-04-16T05:26:54.492Z,60.40
2017-04-16T05:27:53.787Z,60.70
2017-04-16T05:28:52.114Z,60.40
2017-04-16T05:29:50.420Z,60.30
2017-04-16T05:30:48.740Z,60.00
2017-04-16T05:31:47.040Z,60.00
2017-04-16T05:32:45.335Z,59.70
2017-04-16T05:33:43.687Z,59.40
2017-04-16T05:34:41.953Z,59.30
2017-04-16T05:35:40.301Z,59.20
2017-04-16T05:36:38.595Z,59.40
2017-04-16T05:37:36.915Z,59.50
2017-04-16T05:38:35.930Z,59.50
2017-04-16T05:39:34.236Z,59.20
2017-04-16T05:40:33.291Z,59.00
2017-04-16T05:41:31.656Z,58.70
2017-04-16T05:42:30.044Z,58.40
2017-04-16T05:43:29.120Z,58.20
2017-04-16T05:44:27.477Z,57.60
2017-04-16T05:45:25.778Z,57.20
2017-04-16T05:46:24.109Z,57.10
2017-04-16T05:47:22.400Z,56.20
2017-04-16T05:48:20.712Z,55.50
2017-04-16T05:49:19.056Z,55.30
2017-04-16T05:50:17.400Z,55.30
2017-04-16T05:51:15.704Z,55.00
2017-04-16T05:52:14.122Z,54.60
2017-04-16T05:53:12.483Z,54.30
2017-04-16T05:54:11.526Z,54.20
2017-04-16T05:55:09.873Z,54.40
2017-04-16T05:56:08.210Z,54.00
2017-04-16T05:57:07.300Z,54.10
2017-04-16T05:58:05.866Z,53.40
2017-04-16T05:59:04.161Z,53.40
2017-04-16T06:00:02.580Z,53.40
2017-04-16T06:01:00.969Z,53.70
2017-04-16T06:01:59.214Z,53.50
2017-04-16T06:02:57.547Z,53.50
2017-04-16T06:03:56.715Z,53.30
2017-04-16T06:04:54.981Z,53.60
2017-04-16T06:07:17.845Z,53.20
2017-04-16T06:08:16.903Z,52.70
2017-04-16T06:09:15.214Z,52.70
2017-04-16T06:10:13.540Z,52.60
2017-04-16T06:11:11.802Z,53.00
2017-04-16T06:12:10.049Z,53.40
2017-04-16T06:13:08.419Z,52.90
2017-04-16T06:14:07.435Z,53.00
2017-04-16T06:15:06.309Z,52.60
2017-04-16T06:16:04.611Z,53.40
2017-04-16T06:17:03.667Z,52.80
2017-04-16T06:18:02.025Z,52.50
2017-04-16T06:19:00.364Z,52.30
2017-04-16T06:19:58.771Z,52.00
2017-04-16T06:20:57.061Z,51.90
2017-04-16T06:21:55.351Z,52.10
2017-04-16T06:22:53.640Z,52.00
2017-04-16T06:23:51.944Z,52.30
2017-04-16T06:34:35.455Z,51.00
2017-04-16T06:35:34.582Z,51.00
2017-04-16T06:36:33.550Z,51.20
2017-04-16T06:37:31.994Z,50.90
2017-04-16T06:38:33.881Z,50.70
2017-04-16T06:39:32.296Z,50.50
2017-04-16T06:40:33.853Z,50.90
2017-04-16T06:41:33.048Z,50.80
2017-04-16T06:42:32.627Z,50.80
2017-04-16T06:43:33.513Z,51.10
2017-04-16T06:44:34.240Z,50.60
2017-04-16T06:45:33.352Z,50.80
2017-04-16T06:46:33.112Z,50.60
2017-04-16T06:47:31.377Z,49.90
2017-04-16T06:48:29.724Z,50.20
2017-04-16T06:49:28.136Z,49.80
2017-04-16T06:50:26.396Z,49.40
2017-04-16T06:51:24.791Z,49.80
2017-04-16T06:52:23.095Z,49.80
2017-04-16T06:53:22.151Z,49.70
2017-04-16T06:54:20.436Z,49.30
2017-04-16T06:55:18.771Z,49.50
2017-04-16T06:56:17.099Z,49.20
2017-04-16T06:57:15.433Z,50.40
2017-04-16T06:58:13.719Z,49.50
2017-04-16T06:59:12.120Z,49.10
2017-04-16T07:00:10.474Z,49.00
2017-04-16T07:01:08.871Z,49.10
2017-04-16T07:02:07.379Z,49.30
2017-04-16T07:03:05.722Z,49.40
2017-04-16T07:04:04.400Z,49.00
2017-04-16T07:05:02.791Z,48.90
2017-04-16T07:06:01.051Z,49.20
2017-04-16T07:06:59.386Z,48.80
2017-04-16T07:07:58.183Z,48.60
2017-04-16T07:08:57.118Z,48.70
2017-04-16T07:09:55.445Z,48.70
2017-04-16T07:10:53.847Z,48.00
2017-04-16T07:11:52.651Z,48.10
2017-04-16T07:12:50.949Z,47.90
2017-04-16T07:13:49.331Z,47.80
2017-04-16T07:14:47.819Z,47.80
2017-04-16T07:15:46.213Z,47.90
2017-04-16T07:16:44.591Z,47.80
2017-04-16T07:17:43.610Z,48.10
2017-04-16T07:18:42.191Z,48.20
2017-04-16T07:19:40.531Z,48.50
2017-04-16T07:20:39.041Z,48.10
2017-04-16T07:21:37.394Z,47.80
2017-04-16T07:22:35.630Z,47.50
2017-04-16T07:23:34.081Z,47.50
2017-04-16T07:24:32.403Z,47.50
2017-04-16T07:25:30.820Z,46.90
2017-04-16T07:26:29.592Z,47.70
2017-04-16T07:27:29.550Z,47.10
2017-04-16T07:28:28.637Z,47.00
2017-04-16T07:29:28.720Z,46.30
2017-04-16T07:30:27.065Z,46.20
2017-04-16T07:31:25.412Z,46.00
2017-04-16T07:32:23.683Z,46.00
2017-04-16T07:33:22.723Z,46.40
2017-04-16T07:34:21.001Z,45.70
2017-04-16T07:35:19.322Z,45.50
2017-04-16T07:36:17.652Z,45.60
2017-04-16T07:37:16.738Z,46.60
2017-04-16T07:38:15.083Z,45.40
2017-04-16T07:39:13.485Z,45.70
2017-04-16T07:40:11.831Z,46.10
2017-04-16T07:41:10.139Z,45.80
2017-04-16T07:42:08.483Z,45.30
2017-04-16T07:43:06.835Z,45.90
2017-04-16T07:44:05.964Z,45.30
2017-04-16T07:45:04.262Z,45.10
2017-04-16T07:46:02.563Z,44.80
2017-04-16T07:47:00.878Z,44.80
2017-04-16T07:47:59.195Z,45.10
2017-04-16T07:48:57.536Z,45.00
2017-04-16T07:49:55.944Z,45.20
2017-04-16T07:50:54.269Z,45.50
2017-04-16T07:51:53.257Z,46.20
2017-04-16T07:52:52.509Z,46.50
2017-04-16T07:53:50.888Z,46.80
2017-04-16T07:54:49.498Z,47.10
2017-04-16T07:55:47.798Z,46.40
2017-04-16T07:56:46.163Z,46.10
2017-04-16T07:57:44.458Z,46.20
2017-04-16T07:58:42.798Z,46.10
2017-04-16T07:59:41.835Z,46.10
2017-04-16T08:00:40.138Z,46.00
2017-04-16T08:01:39.139Z,46.30
2017-04-16T08:02:38.020Z,46.20
2017-04-16T08:03:36.385Z,46.20
2017-04-16T08:04:34.688Z,46.40
2017-04-16T08:05:32.964Z,47.00
2017-04-16T08:06:31.293Z,47.30
2017-04-16T08:07:30.380Z,46.90
2017-04-16T08:08:29.422Z,47.40
2017-04-16T08:09:27.741Z,47.40
2017-04-16T08:10:26.775Z,47.40
2017-04-16T08:11:25.112Z,47.40
2017-04-16T08:12:23.498Z,47.10
2017-04-16T08:13:21.850Z,47.00
2017-04-16T08:14:20.157Z,46.80
2017-04-16T08:15:18.451Z,46.70
2017-04-16T08:16:16.726Z,46.50
2017-04-16T08:17:16.329Z,46.90
2017-04-16T08:18:15.423Z,47.10
2017-04-16T08:19:13.769Z,47.00
2017-04-16T08:20:12.796Z,46.40
2017-04-16T08:21:11.373Z,46.40
2017-04-16T08:22:09.651Z,47.10
2017-04-16T08:23:08.244Z,47.80
2017-04-16T08:24:07.582Z,46.50
2017-04-16T08:25:05.953Z,46.30
2017-04-16T08:26:04.247Z,46.20
2017-04-16T08:27:02.509Z,45.90
2017-04-16T08:28:00.853Z,45.70
2017-04-16T08:28:59.192Z,45.70
2017-04-16T08:29:58.251Z,45.90
2017-04-16T08:30:56.600Z,45.50
2017-04-16T08:31:54.960Z,44.70
2017-04-16T08:32:53.280Z,44.60
2017-04-16T08:43:36.611Z,42.90
2017-04-16T08:44:34.896Z,42.80
2017-04-16T08:45:33.202Z,43.00
2017-04-16T08:46:31.553Z,43.00
2017-04-16T08:47:29.886Z,42.80
2017-04-16T08:48:28.152Z,42.60
2017-04-16T08:49:26.442Z,42.90
2017-04-16T08:50:24.772Z,42.80
2017-04-16T08:51:23.082Z,43.00
2017-04-16T08:52:21.381Z,43.20
2017-04-16T08:53:19.730Z,43.50
2017-04-16T08:54:18.536Z,42.70
2017-04-16T08:55:17.673Z,42.20
2017-04-16T08:56:15.954Z,42.30
2017-04-16T08:57:14.328Z,41.90
2017-04-16T08:58:13.460Z,41.60
2017-04-16T08:59:11.760Z,42.50
2017-04-16T09:00:10.739Z,41.70
2017-04-16T09:01:09.101Z,41.70
2017-04-16T09:02:08.265Z,41.60
2017-04-16T09:03:06.602Z,41.30
2017-04-16T09:04:04.963Z,41.40
2017-04-16T09:05:03.292Z,41.80
2017-04-16T09:06:02.181Z,41.60
2017-04-16T09:07:00.495Z,42.00
2017-04-16T09:07:58.759Z,41.60
2017-04-16T09:08:57.063Z,41.90
2017-04-16T09:09:55.344Z,42.10
2017-04-16T09:10:53.670Z,41.50
2017-04-16T09:11:52.731Z,41.50
2017-04-16T09:12:52.773Z,41.30
2017-04-16T09:13:51.112Z,41.50
2017-04-16T09:14:49.391Z,41.40
2017-04-16T09:15:47.760Z,40.60
2017-04-16T09:16:46.805Z,40.70
2017-04-16T09:17:45.160Z,40.30
2017-04-16T09:18:43.857Z,40.00
2017-04-16T09:19:42.120Z,40.10
2017-04-16T09:20:40.494Z,39.90
2017-04-16T09:21:39.506Z,40.70
2017-04-16T09:22:37.826Z,39.90
2017-04-16T09:23:36.375Z,39.80
2017-04-16T09:24:35.068Z,40.00
2017-04-16T09:25:34.078Z,40.20
2017-04-16T09:26:32.534Z,40.00
2017-04-16T09:27:30.920Z,39.60
2017-04-16T09:28:29.235Z,40.10
2017-04-16T09:29:27.672Z,40.70
2017-04-16T09:30:29.295Z,39.90
2017-04-16T09:31:27.643Z,39.50
2017-04-16T09:32:27.433Z,39.40
2017-04-16T09:33:27.244Z,39.40
2017-04-16T09:34:26.628Z,39.80
2017-04-16T09:35:25.030Z,39.70
2017-04-16T09:36:23.405Z,39.10
2017-04-16T09:37:22.304Z,39.60
2017-04-16T09:38:20.747Z,39.80
2017-04-16T09:39:19.020Z,40.10
2017-04-16T09:40:18.270Z,40.70
2017-04-16T09:41:16.559Z,40.90
2017-04-16T09:42:15.006Z,40.10
2017-04-16T09:43:14.189Z,40.20
2017-04-16T09:44:12.643Z,40.10
2017-04-16T09:45:11.880Z,41.20
2017-04-16T09:46:10.430Z,41.60
2017-04-16T09:47:08.752Z,41.60
2017-04-16T09:48:07.669Z,42.30
2017-04-16T09:49:06.044Z,43.10
2017-04-16T09:50:04.409Z,42.10
2017-04-16T09:51:03.621Z,42.30
2017-04-16T09:52:01.927Z,42.30
2017-04-16T09:53:00.254Z,42.80
2017-04-16T09:53:58.622Z,42.50
2017-04-16T09:54:57.030Z,42.20
2017-04-16T09:55:55.433Z,42.00
2017-04-16T09:56:53.740Z,42.00
2017-04-16T09:57:52.062Z,42.00
2017-04-16T09:58:52.320Z,42.20
2017-04-16T09:59:50.981Z,42.20
2017-04-16T10:00:49.298Z,42.30
2017-04-16T10:01:48.168Z,42.20
2017-04-16T10:02:46.488Z,42.60
2017-04-16T10:03:44.825Z,42.70
2017-04-16T10:04:43.132Z,42.30
2017-04-16T10:05:41.599Z,41.90
2017-04-16T10:06:39.970Z,41.80
2017-04-16T10:07:38.392Z,41.90
2017-04-16T10:08:36.944Z,41.80
2017-04-16T10:09:36.210Z,41.80
2017-04-16T10:10:34.546Z,41.70
2017-04-16T10:11:32.925Z,41.90
2017-04-16T10:12:31.781Z,42.00
2017-04-16T10:13:30.087Z,41.90
2017-04-16T10:14:29.432Z,41.90
2017-04-16T10:15:27.775Z,41.40
2017-04-16T10:16:26.069Z,41.50
2017-04-16T10:17:25.231Z,41.90
2017-04-16T10:18:23.601Z,42.50
2017-04-16T10:19:23.927Z,42.30
2017-04-16T10:20:22.829Z,42.10
2017-04-16T10:21:21.125Z,42.20
2017-04-16T10:22:19.417Z,42.70
2017-04-16T10:23:17.712Z,43.00
2017-04-16T10:24:16.183Z,43.90
2017-04-16T10:25:14.559Z,43.80
2017-04-16T10:26:12.910Z,44.00
2017-04-16T10:27:11.296Z,44.40
2017-04-16T10:28:09.611Z,44.70
2017-04-16T10:29:07.947Z,45.00
2017-04-16T10:30:07.282Z,45.40
2017-04-16T10:31:05.666Z,45.70
2017-04-16T10:32:03.935Z,45.70
2017-04-16T10:33:02.286Z,46.20
2017-04-16T10:34:00.699Z,46.20
2017-04-16T10:34:59.057Z,46.40
2017-04-16T10:35:58.570Z,46.40
2017-04-16T10:36:56.864Z,46.70
2017-04-16T10:37:55.141Z,47.10
2017-04-16T10:38:53.491Z,47.40
2017-04-16T10:39:51.829Z,47.20
2017-04-16T10:40:50.158Z,47.60
2017-04-16T10:41:48.552Z,47.60
2017-04-16T10:42:46.889Z,47.50
2017-04-16T10:43:46.265Z,47.60
2017-04-16T10:54:35.340Z,49.30
2017-04-16T10:55:33.646Z,49.30
2017-04-16T10:56:31.979Z,49.60
2017-04-16T10:57:30.286Z,49.80
2017-04-16T10:58:28.612Z,50.20
2017-04-16T10:59:26.952Z,50.40
2017-04-16T11:00:25.398Z,51.50
2017-04-16T11:01:24.031Z,51.20
2017-04-16T11:02:22.343Z,51.20
2017-04-16T11:03:20.724Z,51.20
2017-04-16T11:04:19.060Z,51.40
2017-04-16T11:05:18.743Z,51.20
2017-04-16T11:06:17.747Z,51.10
2017-04-16T11:07:16.122Z,51.20
2017-04-16T11:08:14.530Z,51.10
2017-04-16T11:09:12.886Z,51.50
2017-04-16T11:10:11.301Z,52.10
2017-04-16T11:11:09.620Z,52.30
2017-04-16T11:12:08.070Z,51.80
2017-04-16T11:13:06.422Z,51.40
2017-04-16T11:14:05.573Z,51.90
2017-04-16T11:15:03.902Z,52.70
2017-04-16T11:16:02.389Z,53.10
2017-04-16T11:17:01.556Z,54.20
2017-04-16T11:18:00.321Z,54.50
2017-04-16T11:18:59.298Z,54.70
2017-04-16T11:19:57.623Z,55.30
2017-04-16T11:20:55.961Z,55.20
2017-04-16T11:21:54.302Z,55.50
2017-04-16T11:22:53.399Z,56.80
2017-04-16T11:23:51.843Z,56.70
2017-04-16T11:24:51.043Z,57.10
2017-04-16T11:25:50.563Z,57.00
2017-04-16T11:26:48.897Z,57.00
2017-04-16T11:27:47.244Z,57.50
2017-04-16T11:28:46.371Z,57.70
2017-04-16T11:29:45.514Z,57.50
2017-04-16T11:30:43.863Z,58.90
2017-04-16T11:31:42.216Z,58.40
2017-04-16T11:32:40.531Z,59.40
2017-04-16T11:33:38.913Z,59.30
2017-04-16T11:34:38.038Z,59.60
2017-04-16T11:35:36.482Z,58.30
2017-04-16T11:36:36.418Z,58.30
2017-04-16T11:37:35.330Z,58.20
2017-04-16T11:38:34.483Z,58.30
2017-04-16T11:39:32.848Z,58.70
2017-04-16T11:40:31.230Z,58.90
2017-04-16T11:41:29.569Z,59.50
2017-04-16T11:42:27.875Z,59.30
2017-04-16T11:43:26.301Z,59.40
2017-04-16T11:44:25.404Z,60.00
2017-04-16T11:45:23.783Z,59.90
2017-04-16T11:46:22.117Z,59.50
2017-04-16T11:47:20.489Z,59.10
2017-04-16T11:48:18.836Z,58.70
2017-04-16T11:49:17.192Z,58.10
2017-04-16T11:50:16.119Z,57.60
2017-04-16T11:51:14.488Z,57.00
2017-04-16T11:52:12.847Z,56.50
2017-04-16T11:53:10.481Z,55.80
2017-04-16T11:54:08.831Z,54.40
2017-04-16T11:55:07.191Z,54.40
2017-04-16T11:56:05.628Z,53.80
2017-04-16T11:57:04.072Z,53.10
2017-04-16T11:58:03.225Z,52.40
2017-04-16T11:59:01.527Z,50.50
2017-04-16T12:00:00.641Z,49.60
2017-04-16T12:00:59.048Z,49.70
2017-04-16T12:01:57.469Z,48.30
2017-04-16T12:02:55.810Z,49.20
2017-04-16T12:03:54.132Z,48.10
2017-04-16T12:04:52.473Z,47.30
2017-04-16T12:05:50.902Z,47.80
2017-04-16T12:06:49.246Z,46.00
2017-04-16T12:07:47.612Z,46.60
2017-04-16T12:08:45.969Z,45.50
2017-04-16T12:09:44.423Z,46.10
2017-04-16T12:10:42.640Z,46.50
2017-04-16T12:11:40.907Z,46.80
2017-04-16T12:12:39.354Z,46.50
2017-04-16T12:13:37.817Z,46.90
2017-04-16T12:14:36.572Z,46.40
2017-04-16T12:15:34.941Z,46.50
2017-04-16T12:16:33.753Z,46.40
2017-04-16T12:17:32.064Z,46.70
2017-04-16T12:18:30.437Z,46.90
2017-04-16T12:19:28.812Z,46.80
2017-04-16T12:20:27.234Z,46.60
2017-04-16T12:21:25.797Z,46.50
2017-04-16T12:22:24.106Z,45.60
2017-04-16T12:23:22.411Z,45.00
2017-04-16T12:24:20.803Z,42.80
2017-04-16T12:25:19.139Z,42.00
2017-04-16T12:26:17.435Z,40.70
2017-04-16T12:27:15.774Z,40.50
2017-04-16T12:28:14.145Z,40.40
2017-04-16T12:29:13.295Z,38.60
2017-04-16T12:30:11.646Z,37.30
2017-04-16T12:31:10.061Z,37.10
2017-04-16T12:32:09.117Z,35.40
2017-04-16T12:33:08.207Z,35.40
2017-04-16T12:34:06.613Z,34.50
2017-04-16T12:35:05.301Z,34.00
2017-04-16T12:36:03.601Z,33.30
2017-04-16T12:37:01.963Z,32.80
2017-04-16T12:38:00.348Z,32.40
2017-04-16T12:38:58.738Z,32.30
2017-04-16T12:39:57.830Z,32.70
2017-04-16T12:40:56.873Z,32.90
2017-04-16T12:41:55.222Z,33.00
2017-04-16T12:42:53.587Z,33.30
2017-04-16T12:43:51.978Z,34.30
2017-04-16T12:44:50.343Z,35.00
2017-04-16T12:45:48.675Z,35.20
2017-04-16T12:46:47.155Z,35.60
2017-04-16T12:47:45.472Z,36.70
2017-04-16T12:48:43.878Z,37.20
2017-04-16T12:49:42.181Z,37.60
2017-04-16T12:50:40.644Z,37.80
2017-04-16T12:51:38.991Z,37.60
2017-04-16T12:52:37.381Z,38.00
2017-04-16T12:53:35.819Z,37.70
2017-04-16T12:54:34.154Z,37.90
2017-04-16T12:55:33.275Z,38.30
2017-04-16T12:56:31.592Z,38.80
2017-04-16T12:58:38.533Z,39.00
2017-04-16T12:59:36.882Z,39.50
2017-04-16T13:00:36.483Z,39.30
2017-04-16T13:01:34.802Z,39.00
2017-04-16T13:02:33.481Z,38.90
2017-04-16T13:03:31.869Z,38.90
2017-04-16T13:04:31.156Z,39.30
2017-04-16T13:05:29.487Z,39.20
2017-04-16T13:06:27.940Z,39.00
2017-04-16T13:07:26.349Z,39.60
2017-04-16T13:18:09.664Z,38.00
2017-04-16T13:19:07.993Z,38.10
2017-04-16T13:20:06.363Z,39.40
2017-04-16T13:21:05.695Z,39.40
2017-04-16T13:22:04.748Z,39.60
2017-04-16T13:23:03.101Z,39.60
2017-04-16T13:24:01.471Z,39.80
2017-04-16T13:25:00.578Z,40.40
2017-04-16T13:25:58.891Z,40.10
2017-04-16T13:26:57.212Z,40.40
2017-04-16T13:27:55.813Z,40.30
2017-04-16T13:28:54.854Z,40.50
2017-04-16T13:29:53.183Z,40.80